sensor_id;sensor_type;location;lat;lon;timestamp;P1;durP1;ratioP1;P2;durP2;ratioP2
39930;SDS011;26635;-35.248;149.138;2024-03-02T00:00:24;8.63;;;2.78;;
39930;SDS011;26635;-35.248;149.138;2024-03-02T00:02:55;6.78;;;2.13;;
39930;SDS011;26635;-35.248;149.138;2024-03-02T00:05:26;5.65;;;2.22;;
39930;SDS011;26635;-35.248;149.138;2024-03-02T00:07:57;5.10;;;1.58;;
39930;SDS011;26635;-35.248;149.138;2024-03-02T00:10:38;3.25;;;1.20;;
39930;SDS011;26635;-35.248;149.138;2024-03-02T00:13:10;4.13;;;1.50;;
39930;SDS011;26635;-35.248;149.138;2024-03-02T00:15:45;5.78;;;1.38;;
39930;SDS011;26635;-35.248;149.138;2024-03-02T00:18:26;4.07;;;1.43;;
39930;SDS011;26635;-35.248;149.138;2024-03-02T00:21:00;6.00;;;1.10;;
39930;SDS011;26635;-35.248;149.138;2024-03-02T00:23:33;2.05;;;1.20;;
39930;SDS011;26635;-35.248;149.138;2024-03-02T00:26:04;3.53;;;1.25;;
39930;SDS011;26635;-35.248;149.138;2024-03-02T00:28:37;3.20;;;1.38;;
39930;SDS011;26635;-35.248;149.138;2024-03-02T00:31:09;6.63;;;1.60;;
39930;SDS011;26635;-35.248;149.138;2024-03-02T00:33:44;4.45;;;1.73;;
39930;SDS011;26635;-35.248;149.138;2024-03-02T00:36:22;5.15;;;1.48;;
39930;SDS011;26635;-35.248;149.138;2024-03-02T00:38:54;3.72;;;1.63;;
39930;SDS011;26635;-35.248;149.138;2024-03-02T00:41:27;4.25;;;1.35;;
39930;SDS011;26635;-35.248;149.138;2024-03-02T00:44:04;8.35;;;1.40;;
39930;SDS011;26635;-35.248;149.138;2024-03-02T00:46:43;5.10;;;1.10;;
39930;SDS011;26635;-35.248;149.138;2024-03-02T00:49:23;5.38;;;1.17;;
39930;SDS011;26635;-35.248;149.138;2024-03-02T00:51:55;4.85;;;1.25;;
39930;SDS011;26635;-35.248;149.138;2024-03-02T00:54:27;4.28;;;1.52;;
39930;SDS011;26635;-35.248;149.138;2024-03-02T00:56:58;4.40;;;1.23;;
39930;SDS011;26635;-35.248;149.138;2024-03-02T00:59:29;4.00;;;1.27;;
39930;SDS011;26635;-35.248;149.138;2024-03-02T01:02:01;3.33;;;1.35;;
39930;SDS011;26635;-35.248;149.138;2024-03-02T01:04:31;4.55;;;1.30;;
39930;SDS011;26635;-35.248;149.138;2024-03-02T01:07:02;6.30;;;1.50;;
39930;SDS011;26635;-35.248;149.138;2024-03-02T01:09:32;6.82;;;1.40;;
39930;SDS011;26635;-35.248;149.138;2024-03-02T01:12:03;2.05;;;1.08;;
39930;SDS011;26635;-35.248;149.138;2024-03-02T01:14:33;5.30;;;1.23;;
39930;SDS011;26635;-35.248;149.138;2024-03-02T01:17:04;4.45;;;1.00;;
39930;SDS011;26635;-35.248;149.138;2024-03-02T01:19:34;5.05;;;1.27;;
39930;SDS011;26635;-35.248;149.138;2024-03-02T01:22:05;3.78;;;1.20;;
39930;SDS011;26635;-35.248;149.138;2024-03-02T01:24:35;6.53;;;1.13;;
39930;SDS011;26635;-35.248;149.138;2024-03-02T01:27:06;3.90;;;1.40;;
39930;SDS011;26635;-35.248;149.138;2024-03-02T01:29:36;4.43;;;1.05;;
39930;SDS011;26635;-35.248;149.138;2024-03-02T01:32:07;6.18;;;0.98;;
39930;SDS011;26635;-35.248;149.138;2024-03-02T01:34:38;3.35;;;1.10;;
39930;SDS011;26635;-35.248;149.138;2024-03-02T01:37:08;3.83;;;0.73;;
39930;SDS011;26635;-35.248;149.138;2024-03-02T01:39:38;2.92;;;1.00;;
39930;SDS011;26635;-35.248;149.138;2024-03-02T01:42:09;3.05;;;0.80;;
39930;SDS011;26635;-35.248;149.138;2024-03-02T01:44:40;2.60;;;0.90;;
39930;SDS011;26635;-35.248;149.138;2024-03-02T01:47:11;5.03;;;1.17;;
39930;SDS011;26635;-35.248;149.138;2024-03-02T01:49:41;1.70;;;0.70;;
39930;SDS011;26635;-35.248;149.138;2024-03-02T01:52:11;1.98;;;0.75;;
39930;SDS011;26635;-35.248;149.138;2024-03-02T01:54:42;3.53;;;0.90;;
39930;SDS011;26635;-35.248;149.138;2024-03-02T01:57:12;2.25;;;1.00;;
39930;SDS011;26635;-35.248;149.138;2024-03-02T01:59:45;2.40;;;0.70;;
39930;SDS011;26635;-35.248;149.138;2024-03-02T02:02:19;4.72;;;0.80;;
39930;SDS011;26635;-35.248;149.138;2024-03-02T02:04:50;1.02;;;0.55;;
39930;SDS011;26635;-35.248;149.138;2024-03-02T02:07:20;4.45;;;0.70;;
39930;SDS011;26635;-35.248;149.138;2024-03-02T02:09:51;3.35;;;0.63;;
39930;SDS011;26635;-35.248;149.138;2024-03-02T02:12:21;2.63;;;0.65;;
39930;SDS011;26635;-35.248;149.138;2024-03-02T02:14:52;1.42;;;0.52;;
39930;SDS011;26635;-35.248;149.138;2024-03-02T02:17:23;2.53;;;0.93;;
39930;SDS011;26635;-35.248;149.138;2024-03-02T02:19:55;5.72;;;0.80;;
39930;SDS011;26635;-35.248;149.138;2024-03-02T02:22:28;3.08;;;0.55;;
39930;SDS011;26635;-35.248;149.138;2024-03-02T02:24:59;4.43;;;0.65;;
39930;SDS011;26635;-35.248;149.138;2024-03-02T02:27:31;1.75;;;0.57;;
39930;SDS011;26635;-35.248;149.138;2024-03-02T02:30:01;3.40;;;0.68;;
39930;SDS011;26635;-35.248;149.138;2024-03-02T02:32:33;3.40;;;0.93;;
39930;SDS011;26635;-35.248;149.138;2024-03-02T02:35:03;2.95;;;0.73;;
39930;SDS011;26635;-35.248;149.138;2024-03-02T02:37:34;2.78;;;1.15;;
39930;SDS011;26635;-35.248;149.138;2024-03-02T02:40:05;2.30;;;0.65;;
39930;SDS011;26635;-35.248;149.138;2024-03-02T02:42:35;1.67;;;0.60;;
39930;SDS011;26635;-35.248;149.138;2024-03-02T02:45:06;1.40;;;0.70;;
39930;SDS011;26635;-35.248;149.138;2024-03-02T02:47:37;3.22;;;1.02;;
39930;SDS011;26635;-35.248;149.138;2024-03-02T02:50:07;2.95;;;0.70;;
39930;SDS011;26635;-35.248;149.138;2024-03-02T02:52:40;3.25;;;0.60;;
39930;SDS011;26635;-35.248;149.138;2024-03-02T02:55:12;0.88;;;0.60;;
39930;SDS011;26635;-35.248;149.138;2024-03-02T02:57:44;2.38;;;0.80;;
39930;SDS011;26635;-35.248;149.138;2024-03-02T03:00:16;1.00;;;0.57;;
39930;SDS011;26635;-35.248;149.138;2024-03-02T03:02:48;2.08;;;0.32;;
39930;SDS011;26635;-35.248;149.138;2024-03-02T03:05:19;2.50;;;0.65;;
39930;SDS011;26635;-35.248;149.138;2024-03-02T03:07:49;2.17;;;0.60;;
39930;SDS011;26635;-35.248;149.138;2024-03-02T03:10:20;1.60;;;0.40;;
39930;SDS011;26635;-35.248;149.138;2024-03-02T03:12:51;1.33;;;0.50;;
39930;SDS011;26635;-35.248;149.138;2024-03-02T03:15:24;2.22;;;0.40;;
39930;SDS011;26635;-35.248;149.138;2024-03-02T03:17:55;2.33;;;0.40;;
39930;SDS011;26635;-35.248;149.138;2024-03-02T03:20:26;1.23;;;0.28;;
39930;SDS011;26635;-35.248;149.138;2024-03-02T03:22:58;1.17;;;0.40;;
39930;SDS011;26635;-35.248;149.138;2024-03-02T03:25:31;4.95;;;1.05;;
39930;SDS011;26635;-35.248;149.138;2024-03-02T03:28:02;1.05;;;0.60;;
39930;SDS011;26635;-35.248;149.138;2024-03-02T03:30:33;0.98;;;0.30;;
39930;SDS011;26635;-35.248;149.138;2024-03-02T03:33:04;0.75;;;0.30;;
39930;SDS011;26635;-35.248;149.138;2024-03-02T03:35:38;1.17;;;0.40;;
39930;SDS011;26635;-35.248;149.138;2024-03-02T03:38:09;2.80;;;0.38;;
39930;SDS011;26635;-35.248;149.138;2024-03-02T03:40:40;2.08;;;0.40;;
39930;SDS011;26635;-35.248;149.138;2024-03-02T03:43:11;2.10;;;0.77;;
39930;SDS011;26635;-35.248;149.138;2024-03-02T03:45:41;1.88;;;0.45;;
39930;SDS011;26635;-35.248;149.138;2024-03-02T03:48:12;1.48;;;0.50;;
39930;SDS011;26635;-35.248;149.138;2024-03-02T03:50:43;2.10;;;0.70;;
39930;SDS011;26635;-35.248;149.138;2024-03-02T03:53:13;1.20;;;0.40;;
39930;SDS011;26635;-35.248;149.138;2024-03-02T03:55:43;3.92;;;0.77;;
39930;SDS011;26635;-35.248;149.138;2024-03-02T03:58:15;1.52;;;0.40;;
39930;SDS011;26635;-35.248;149.138;2024-03-02T04:00:49;1.73;;;0.50;;
39930;SDS011;26635;-35.248;149.138;2024-03-02T04:03:20;1.98;;;0.43;;
39930;SDS011;26635;-35.248;149.138;2024-03-02T04:05:51;1.67;;;0.40;;
39930;SDS011;26635;-35.248;149.138;2024-03-02T04:08:21;2.53;;;0.50;;
39930;SDS011;26635;-35.248;149.138;2024-03-02T04:10:57;1.85;;;0.30;;
39930;SDS011;26635;-35.248;149.138;2024-03-02T04:13:30;2.58;;;0.50;;
39930;SDS011;26635;-35.248;149.138;2024-03-02T04:16:00;1.85;;;0.60;;
39930;SDS011;26635;-35.248;149.138;2024-03-02T04:18:33;2.55;;;0.35;;
39930;SDS011;26635;-35.248;149.138;2024-03-02T04:21:04;1.50;;;0.30;;
39930;SDS011;26635;-35.248;149.138;2024-03-02T04:23:35;1.73;;;0.65;;
39930;SDS011;26635;-35.248;149.138;2024-03-02T04:26:06;1.02;;;0.30;;
39930;SDS011;26635;-35.248;149.138;2024-03-02T04:28:37;0.70;;;0.20;;
39930;SDS011;26635;-35.248;149.138;2024-03-02T04:31:08;0.90;;;0.38;;
39930;SDS011;26635;-35.248;149.138;2024-03-02T04:33:38;1.48;;;0.30;;
39930;SDS011;26635;-35.248;149.138;2024-03-02T04:36:09;3.47;;;0.60;;
39930;SDS011;26635;-35.248;149.138;2024-03-02T04:38:39;0.60;;;0.30;;
39930;SDS011;26635;-35.248;149.138;2024-03-02T04:41:10;2.00;;;0.30;;
39930;SDS011;26635;-35.248;149.138;2024-03-02T04:43:40;1.10;;;0.50;;
39930;SDS011;26635;-35.248;149.138;2024-03-02T04:46:11;0.50;;;0.35;;
39930;SDS011;26635;-35.248;149.138;2024-03-02T04:48:41;0.63;;;0.28;;
39930;SDS011;26635;-35.248;149.138;2024-03-02T04:51:12;2.60;;;0.52;;
39930;SDS011;26635;-35.248;149.138;2024-03-02T04:53:43;0.88;;;0.35;;
39930;SDS011;26635;-35.248;149.138;2024-03-02T04:56:13;1.27;;;0.30;;
39930;SDS011;26635;-35.248;149.138;2024-03-02T04:59:01;1.48;;;0.20;;
39930;SDS011;26635;-35.248;149.138;2024-03-02T05:01:32;2.05;;;0.32;;
39930;SDS011;26635;-35.248;149.138;2024-03-02T05:04:03;1.83;;;0.30;;
39930;SDS011;26635;-35.248;149.138;2024-03-02T05:06:34;1.42;;;0.40;;
39930;SDS011;26635;-35.248;149.138;2024-03-02T05:09:08;1.38;;;0.45;;
39930;SDS011;26635;-35.248;149.138;2024-03-02T05:11:39;1.60;;;0.40;;
39930;SDS011;26635;-35.248;149.138;2024-03-02T05:14:30;0.35;;;0.20;;
39930;SDS011;26635;-35.248;149.138;2024-03-02T05:17:01;0.75;;;0.30;;
39930;SDS011;26635;-35.248;149.138;2024-03-02T05:19:31;0.75;;;0.38;;
39930;SDS011;26635;-35.248;149.138;2024-03-02T05:22:01;2.67;;;0.47;;
39930;SDS011;26635;-35.248;149.138;2024-03-02T05:24:32;1.98;;;0.60;;
39930;SDS011;26635;-35.248;149.138;2024-03-02T05:27:02;0.47;;;0.30;;
39930;SDS011;26635;-35.248;149.138;2024-03-02T05:29:35;1.30;;;0.32;;
39930;SDS011;26635;-35.248;149.138;2024-03-02T05:32:05;1.67;;;0.28;;
39930;SDS011;26635;-35.248;149.138;2024-03-02T05:34:36;1.27;;;0.50;;
39930;SDS011;26635;-35.248;149.138;2024-03-02T05:37:06;0.75;;;0.30;;
39930;SDS011;26635;-35.248;149.138;2024-03-02T05:39:37;2.15;;;0.75;;
39930;SDS011;26635;-35.248;149.138;2024-03-02T05:42:09;0.70;;;0.28;;
39930;SDS011;26635;-35.248;149.138;2024-03-02T05:44:40;2.33;;;0.40;;
39930;SDS011;26635;-35.248;149.138;2024-03-02T05:47:10;1.95;;;0.60;;
39930;SDS011;26635;-35.248;149.138;2024-03-02T05:49:41;1.15;;;0.30;;
39930;SDS011;26635;-35.248;149.138;2024-03-02T05:52:12;2.15;;;0.50;;
39930;SDS011;26635;-35.248;149.138;2024-03-02T05:54:43;7.85;;;0.60;;
39930;SDS011;26635;-35.248;149.138;2024-03-02T05:57:14;1.77;;;0.40;;
39930;SDS011;26635;-35.248;149.138;2024-03-02T06:00:03;2.67;;;0.40;;
39930;SDS011;26635;-35.248;149.138;2024-03-02T06:02:39;0.60;;;0.32;;
39930;SDS011;26635;-35.248;149.138;2024-03-02T06:05:10;1.85;;;0.40;;
39930;SDS011;26635;-35.248;149.138;2024-03-02T06:07:42;2.83;;;0.30;;
39930;SDS011;26635;-35.248;149.138;2024-03-02T06:10:14;1.90;;;0.80;;
39930;SDS011;26635;-35.248;149.138;2024-03-02T06:12:45;1.75;;;0.40;;
39930;SDS011;26635;-35.248;149.138;2024-03-02T06:15:15;2.10;;;0.57;;
39930;SDS011;26635;-35.248;149.138;2024-03-02T06:17:46;1.15;;;0.60;;
39930;SDS011;26635;-35.248;149.138;2024-03-02T06:20:16;1.65;;;0.52;;
39930;SDS011;26635;-35.248;149.138;2024-03-02T06:22:46;1.95;;;0.30;;
39930;SDS011;26635;-35.248;149.138;2024-03-02T06:25:17;1.95;;;0.43;;
39930;SDS011;26635;-35.248;149.138;2024-03-02T06:27:47;1.67;;;0.38;;
39930;SDS011;26635;-35.248;149.138;2024-03-02T06:30:18;1.33;;;0.40;;
39930;SDS011;26635;-35.248;149.138;2024-03-02T06:32:49;1.80;;;0.60;;
39930;SDS011;26635;-35.248;149.138;2024-03-02T06:35:19;3.30;;;0.80;;
39930;SDS011;26635;-35.248;149.138;2024-03-02T06:37:49;1.70;;;0.70;;
39930;SDS011;26635;-35.248;149.138;2024-03-02T06:40:20;3.83;;;1.00;;
39930;SDS011;26635;-35.248;149.138;2024-03-02T06:42:50;1.85;;;0.40;;
39930;SDS011;26635;-35.248;149.138;2024-03-02T06:45:21;2.30;;;0.75;;
39930;SDS011;26635;-35.248;149.138;2024-03-02T06:47:52;1.10;;;0.70;;
39930;SDS011;26635;-35.248;149.138;2024-03-02T06:50:35;3.03;;;0.50;;
39930;SDS011;26635;-35.248;149.138;2024-03-02T06:53:05;4.78;;;0.70;;
39930;SDS011;26635;-35.248;149.138;2024-03-02T06:55:36;3.03;;;0.68;;
39930;SDS011;26635;-35.248;149.138;2024-03-02T06:58:08;2.05;;;0.60;;
39930;SDS011;26635;-35.248;149.138;2024-03-02T07:00:39;0.85;;;0.40;;
39930;SDS011;26635;-35.248;149.138;2024-03-02T07:03:09;1.98;;;0.70;;
39930;SDS011;26635;-35.248;149.138;2024-03-02T07:05:39;1.38;;;0.60;;
39930;SDS011;26635;-35.248;149.138;2024-03-02T07:08:10;1.25;;;0.50;;
39930;SDS011;26635;-35.248;149.138;2024-03-02T07:10:41;1.77;;;0.60;;
39930;SDS011;26635;-35.248;149.138;2024-03-02T07:13:12;1.05;;;0.50;;
39930;SDS011;26635;-35.248;149.138;2024-03-02T07:15:44;1.65;;;0.57;;
39930;SDS011;26635;-35.248;149.138;2024-03-02T07:18:32;0.52;;;0.43;;
39930;SDS011;26635;-35.248;149.138;2024-03-02T07:21:08;1.95;;;0.60;;
39930;SDS011;26635;-35.248;149.138;2024-03-02T07:23:39;2.13;;;0.60;;
39930;SDS011;26635;-35.248;149.138;2024-03-02T07:26:10;3.15;;;1.17;;
39930;SDS011;26635;-35.248;149.138;2024-03-02T07:28:47;1.92;;;0.70;;
39930;SDS011;26635;-35.248;149.138;2024-03-02T07:31:18;3.78;;;0.70;;
39930;SDS011;26635;-35.248;149.138;2024-03-02T07:33:48;1.63;;;0.90;;
39930;SDS011;26635;-35.248;149.138;2024-03-02T07:36:19;3.70;;;1.13;;
39930;SDS011;26635;-35.248;149.138;2024-03-02T07:38:49;2.47;;;0.88;;
39930;SDS011;26635;-35.248;149.138;2024-03-02T07:41:20;1.92;;;0.50;;
39930;SDS011;26635;-35.248;149.138;2024-03-02T07:43:50;1.08;;;0.40;;
39930;SDS011;26635;-35.248;149.138;2024-03-02T07:46:20;2.88;;;0.88;;
39930;SDS011;26635;-35.248;149.138;2024-03-02T07:48:51;1.08;;;0.60;;
39930;SDS011;26635;-35.248;149.138;2024-03-02T07:51:21;2.03;;;0.90;;
39930;SDS011;26635;-35.248;149.138;2024-03-02T07:53:52;1.42;;;0.57;;
39930;SDS011;26635;-35.248;149.138;2024-03-02T07:56:22;0.88;;;0.47;;
39930;SDS011;26635;-35.248;149.138;2024-03-02T07:58:52;2.38;;;0.63;;
39930;SDS011;26635;-35.248;149.138;2024-03-02T08:01:25;1.20;;;0.43;;
39930;SDS011;26635;-35.248;149.138;2024-03-02T08:04:02;2.30;;;0.43;;
39930;SDS011;26635;-35.248;149.138;2024-03-02T08:06:33;2.13;;;0.50;;
39930;SDS011;26635;-35.248;149.138;2024-03-02T08:09:03;2.40;;;0.50;;
39930;SDS011;26635;-35.248;149.138;2024-03-02T08:11:38;1.83;;;1.00;;
39930;SDS011;26635;-35.248;149.138;2024-03-02T08:14:08;3.35;;;0.77;;
39930;SDS011;26635;-35.248;149.138;2024-03-02T08:16:40;1.63;;;0.80;;
39930;SDS011;26635;-35.248;149.138;2024-03-02T08:19:10;2.10;;;0.88;;
39930;SDS011;26635;-35.248;149.138;2024-03-02T08:21:42;2.97;;;0.68;;
39930;SDS011;26635;-35.248;149.138;2024-03-02T08:24:13;1.85;;;0.77;;
39930;SDS011;26635;-35.248;149.138;2024-03-02T08:26:43;1.30;;;0.60;;
39930;SDS011;26635;-35.248;149.138;2024-03-02T08:29:13;2.08;;;0.40;;
39930;SDS011;26635;-35.248;149.138;2024-03-02T08:31:44;3.00;;;0.80;;
39930;SDS011;26635;-35.248;149.138;2024-03-02T08:34:14;1.30;;;0.50;;
39930;SDS011;26635;-35.248;149.138;2024-03-02T08:36:44;0.85;;;0.50;;
39930;SDS011;26635;-35.248;149.138;2024-03-02T08:39:16;2.08;;;0.60;;
39930;SDS011;26635;-35.248;149.138;2024-03-02T08:41:48;0.85;;;0.30;;
39930;SDS011;26635;-35.248;149.138;2024-03-02T08:44:19;2.97;;;0.28;;
39930;SDS011;26635;-35.248;149.138;2024-03-02T08:46:49;1.77;;;0.50;;
39930;SDS011;26635;-35.248;149.138;2024-03-02T08:49:19;0.85;;;0.40;;
39930;SDS011;26635;-35.248;149.138;2024-03-02T08:51:51;3.80;;;0.68;;
39930;SDS011;26635;-35.248;149.138;2024-03-02T08:54:24;2.00;;;0.60;;
39930;SDS011;26635;-35.248;149.138;2024-03-02T08:56:54;2.33;;;0.70;;
39930;SDS011;26635;-35.248;149.138;2024-03-02T08:59:25;1.52;;;0.60;;
39930;SDS011;26635;-35.248;149.138;2024-03-02T09:01:58;6.72;;;0.75;;
39930;SDS011;26635;-35.248;149.138;2024-03-02T09:04:29;1.95;;;0.50;;
39930;SDS011;26635;-35.248;149.138;2024-03-02T09:07:01;1.10;;;0.50;;
39930;SDS011;26635;-35.248;149.138;2024-03-02T09:09:31;2.45;;;0.70;;
39930;SDS011;26635;-35.248;149.138;2024-03-02T09:12:02;2.78;;;0.68;;
39930;SDS011;26635;-35.248;149.138;2024-03-02T09:14:33;2.28;;;0.93;;
39930;SDS011;26635;-35.248;149.138;2024-03-02T09:17:04;8.45;;;1.08;;
39930;SDS011;26635;-35.248;149.138;2024-03-02T09:19:34;2.13;;;1.05;;
39930;SDS011;26635;-35.248;149.138;2024-03-02T09:22:04;3.08;;;0.70;;
39930;SDS011;26635;-35.248;149.138;2024-03-02T09:24:35;2.22;;;0.65;;
39930;SDS011;26635;-35.248;149.138;2024-03-02T09:27:05;3.13;;;0.73;;
39930;SDS011;26635;-35.248;149.138;2024-03-02T09:29:35;1.58;;;0.70;;
39930;SDS011;26635;-35.248;149.138;2024-03-02T09:32:06;3.47;;;0.90;;
39930;SDS011;26635;-35.248;149.138;2024-03-02T09:34:41;2.53;;;0.60;;
39930;SDS011;26635;-35.248;149.138;2024-03-02T09:37:11;2.38;;;0.88;;
39930;SDS011;26635;-35.248;149.138;2024-03-02T09:39:43;4.70;;;0.77;;
39930;SDS011;26635;-35.248;149.138;2024-03-02T09:42:15;2.13;;;0.55;;
39930;SDS011;26635;-35.248;149.138;2024-03-02T09:44:48;3.65;;;1.42;;
39930;SDS011;26635;-35.248;149.138;2024-03-02T09:47:19;1.73;;;0.60;;
39930;SDS011;26635;-35.248;149.138;2024-03-02T09:49:49;4.47;;;1.38;;
39930;SDS011;26635;-35.248;149.138;2024-03-02T09:52:20;2.85;;;0.80;;
39930;SDS011;26635;-35.248;149.138;2024-03-02T09:54:52;1.95;;;0.70;;
39930;SDS011;26635;-35.248;149.138;2024-03-02T09:57:22;3.97;;;0.70;;
39930;SDS011;26635;-35.248;149.138;2024-03-02T09:59:52;1.63;;;0.60;;
39930;SDS011;26635;-35.248;149.138;2024-03-02T10:02:23;2.80;;;0.60;;
39930;SDS011;26635;-35.248;149.138;2024-03-02T10:04:53;2.90;;;0.65;;
39930;SDS011;26635;-35.248;149.138;2024-03-02T10:07:23;2.10;;;0.90;;
39930;SDS011;26635;-35.248;149.138;2024-03-02T10:09:54;2.78;;;0.70;;
39930;SDS011;26635;-35.248;149.138;2024-03-02T10:12:24;1.45;;;0.65;;
39930;SDS011;26635;-35.248;149.138;2024-03-02T10:15:02;1.30;;;0.73;;
39930;SDS011;26635;-35.248;149.138;2024-03-02T10:17:34;1.48;;;0.88;;
39930;SDS011;26635;-35.248;149.138;2024-03-02T10:20:23;4.10;;;0.68;;
39930;SDS011;26635;-35.248;149.138;2024-03-02T10:23:16;0.98;;;0.55;;
39930;SDS011;26635;-35.248;149.138;2024-03-02T10:25:46;1.75;;;0.63;;
39930;SDS011;26635;-35.248;149.138;2024-03-02T10:28:24;2.95;;;0.70;;
39930;SDS011;26635;-35.248;149.138;2024-03-02T10:30:56;0.82;;;0.50;;
39930;SDS011;26635;-35.248;149.138;2024-03-02T10:33:27;2.20;;;0.75;;
39930;SDS011;26635;-35.248;149.138;2024-03-02T10:35:58;2.67;;;0.70;;
39930;SDS011;26635;-35.248;149.138;2024-03-02T10:38:29;2.15;;;0.68;;
39930;SDS011;26635;-35.248;149.138;2024-03-02T10:41:00;0.80;;;0.40;;
39930;SDS011;26635;-35.248;149.138;2024-03-02T10:43:32;1.33;;;0.75;;
39930;SDS011;26635;-35.248;149.138;2024-03-02T10:46:02;1.95;;;0.40;;
39930;SDS011;26635;-35.248;149.138;2024-03-02T10:48:33;1.77;;;0.60;;
39930;SDS011;26635;-35.248;149.138;2024-03-02T10:51:06;1.85;;;0.50;;
39930;SDS011;26635;-35.248;149.138;2024-03-02T10:53:36;0.85;;;0.43;;
39930;SDS011;26635;-35.248;149.138;2024-03-02T10:56:07;0.35;;;0.30;;
39930;SDS011;26635;-35.248;149.138;2024-03-02T10:58:38;0.57;;;0.38;;
39930;SDS011;26635;-35.248;149.138;2024-03-02T11:01:09;2.78;;;0.40;;
39930;SDS011;26635;-35.248;149.138;2024-03-02T11:03:41;0.70;;;0.40;;
39930;SDS011;26635;-35.248;149.138;2024-03-02T11:06:13;1.15;;;0.60;;
39930;SDS011;26635;-35.248;149.138;2024-03-02T11:08:44;2.20;;;0.65;;
39930;SDS011;26635;-35.248;149.138;2024-03-02T11:11:21;1.58;;;0.35;;
39930;SDS011;26635;-35.248;149.138;2024-03-02T11:13:57;0.70;;;0.40;;
39930;SDS011;26635;-35.248;149.138;2024-03-02T11:16:37;2.90;;;0.40;;
39930;SDS011;26635;-35.248;149.138;2024-03-02T11:19:10;1.10;;;0.40;;
39930;SDS011;26635;-35.248;149.138;2024-03-02T11:21:44;2.05;;;0.60;;
39930;SDS011;26635;-35.248;149.138;2024-03-02T11:26:57;0.50;;;0.40;;
39930;SDS011;26635;-35.248;149.138;2024-03-02T11:34:50;0.93;;;0.40;;
39930;SDS011;26635;-35.248;149.138;2024-03-02T11:37:21;2.15;;;0.50;;
39930;SDS011;26635;-35.248;149.138;2024-03-02T11:39:51;2.33;;;0.30;;
39930;SDS011;26635;-35.248;149.138;2024-03-02T11:42:21;1.00;;;0.40;;
39930;SDS011;26635;-35.248;149.138;2024-03-02T11:44:52;1.45;;;0.30;;
39930;SDS011;26635;-35.248;149.138;2024-03-02T11:47:26;3.45;;;0.50;;
39930;SDS011;26635;-35.248;149.138;2024-03-02T11:50:05;1.50;;;0.25;;
39930;SDS011;26635;-35.248;149.138;2024-03-02T11:52:35;1.27;;;0.40;;
39930;SDS011;26635;-35.248;149.138;2024-03-02T11:55:09;0.57;;;0.40;;
39930;SDS011;26635;-35.248;149.138;2024-03-02T11:57:40;0.50;;;0.20;;
39930;SDS011;26635;-35.248;149.138;2024-03-02T12:00:18;0.28;;;0.28;;
39930;SDS011;26635;-35.248;149.138;2024-03-02T12:03:23;0.50;;;0.40;;
39930;SDS011;26635;-35.248;149.138;2024-03-02T12:05:45;1.23;;;0.20;;
39930;SDS011;26635;-35.248;149.138;2024-03-02T12:08:25;1.42;;;0.40;;
39930;SDS011;26635;-35.248;149.138;2024-03-02T12:10:57;1.63;;;0.30;;
39930;SDS011;26635;-35.248;149.138;2024-03-02T12:13:31;0.85;;;0.30;;
39930;SDS011;26635;-35.248;149.138;2024-03-02T12:16:02;2.17;;;0.50;;
39930;SDS011;26635;-35.248;149.138;2024-03-02T12:18:34;0.75;;;0.32;;
39930;SDS011;26635;-35.248;149.138;2024-03-02T12:21:04;0.43;;;0.30;;
39930;SDS011;26635;-35.248;149.138;2024-03-02T12:23:37;1.00;;;0.40;;
39930;SDS011;26635;-35.248;149.138;2024-03-02T12:26:07;1.13;;;0.40;;
39930;SDS011;26635;-35.248;149.138;2024-03-02T12:28:37;3.58;;;0.45;;
39930;SDS011;26635;-35.248;149.138;2024-03-02T12:31:08;1.33;;;0.30;;
39930;SDS011;26635;-35.248;149.138;2024-03-02T12:33:39;0.70;;;0.32;;
39930;SDS011;26635;-35.248;149.138;2024-03-02T12:36:10;0.70;;;0.40;;
39930;SDS011;26635;-35.248;149.138;2024-03-02T12:38:45;0.30;;;0.22;;
39930;SDS011;26635;-35.248;149.138;2024-03-02T12:41:15;1.08;;;0.30;;
39930;SDS011;26635;-35.248;149.138;2024-03-02T12:43:46;0.85;;;0.40;;
39930;SDS011;26635;-35.248;149.138;2024-03-02T12:46:16;0.52;;;0.30;;
39930;SDS011;26635;-35.248;149.138;2024-03-02T12:48:47;2.47;;;0.40;;
39930;SDS011;26635;-35.248;149.138;2024-03-02T12:51:17;1.25;;;0.50;;
39930;SDS011;26635;-35.248;149.138;2024-03-02T12:53:54;0.98;;;0.50;;
39930;SDS011;26635;-35.248;149.138;2024-03-02T12:56:26;1.67;;;0.60;;
39930;SDS011;26635;-35.248;149.138;2024-03-02T12:58:58;1.15;;;0.40;;
39930;SDS011;26635;-35.248;149.138;2024-03-02T13:01:28;1.75;;;0.40;;
39930;SDS011;26635;-35.248;149.138;2024-03-02T13:04:00;1.13;;;0.40;;
39930;SDS011;26635;-35.248;149.138;2024-03-02T13:06:32;0.85;;;0.40;;
39930;SDS011;26635;-35.248;149.138;2024-03-02T13:09:03;1.27;;;0.55;;
39930;SDS011;26635;-35.248;149.138;2024-03-02T13:11:34;0.95;;;0.43;;
39930;SDS011;26635;-35.248;149.138;2024-03-02T13:14:06;0.88;;;0.40;;
39930;SDS011;26635;-35.248;149.138;2024-03-02T13:16:40;0.95;;;0.80;;
39930;SDS011;26635;-35.248;149.138;2024-03-02T13:19:14;1.92;;;0.52;;
39930;SDS011;26635;-35.248;149.138;2024-03-02T13:21:46;1.23;;;0.50;;
39930;SDS011;26635;-35.248;149.138;2024-03-02T13:24:16;1.42;;;0.60;;
39930;SDS011;26635;-35.248;149.138;2024-03-02T13:26:48;0.75;;;0.40;;
39930;SDS011;26635;-35.248;149.138;2024-03-02T13:29:23;2.03;;;1.00;;
39930;SDS011;26635;-35.248;149.138;2024-03-02T13:31:54;2.03;;;0.52;;
39930;SDS011;26635;-35.248;149.138;2024-03-02T13:34:26;1.38;;;0.70;;
39930;SDS011;26635;-35.248;149.138;2024-03-02T13:36:56;1.63;;;0.60;;
39930;SDS011;26635;-35.248;149.138;2024-03-02T13:39:27;0.70;;;0.50;;
39930;SDS011;26635;-35.248;149.138;2024-03-02T13:41:59;1.02;;;0.60;;
39930;SDS011;26635;-35.248;149.138;2024-03-02T13:44:34;1.05;;;0.60;;
39930;SDS011;26635;-35.248;149.138;2024-03-02T13:47:05;1.27;;;0.77;;
39930;SDS011;26635;-35.248;149.138;2024-03-02T13:49:35;1.40;;;0.68;;
39930;SDS011;26635;-35.248;149.138;2024-03-02T13:52:08;1.25;;;0.68;;
39930;SDS011;26635;-35.248;149.138;2024-03-02T13:54:45;1.05;;;0.60;;
39930;SDS011;26635;-35.248;149.138;2024-03-02T13:57:16;1.20;;;0.60;;
39930;SDS011;26635;-35.248;149.138;2024-03-02T13:59:53;2.00;;;0.50;;
39930;SDS011;26635;-35.248;149.138;2024-03-02T14:02:23;1.45;;;0.70;;
39930;SDS011;26635;-35.248;149.138;2024-03-02T14:04:55;1.77;;;0.45;;
39930;SDS011;26635;-35.248;149.138;2024-03-02T14:07:25;1.08;;;0.55;;
39930;SDS011;26635;-35.248;149.138;2024-03-02T14:09:55;2.55;;;0.60;;
39930;SDS011;26635;-35.248;149.138;2024-03-02T14:12:26;1.23;;;0.68;;
39930;SDS011;26635;-35.248;149.138;2024-03-02T14:14:57;1.55;;;0.82;;
39930;SDS011;26635;-35.248;149.138;2024-03-02T14:17:30;1.90;;;1.08;;
39930;SDS011;26635;-35.248;149.138;2024-03-02T14:20:01;1.08;;;0.60;;
39930;SDS011;26635;-35.248;149.138;2024-03-02T14:22:33;1.05;;;0.60;;
39930;SDS011;26635;-35.248;149.138;2024-03-02T14:25:06;2.03;;;0.77;;
39930;SDS011;26635;-35.248;149.138;2024-03-02T14:27:37;1.38;;;0.60;;
39930;SDS011;26635;-35.248;149.138;2024-03-02T14:30:27;1.60;;;0.60;;
39930;SDS011;26635;-35.248;149.138;2024-03-02T14:32:57;0.90;;;0.60;;
39930;SDS011;26635;-35.248;149.138;2024-03-02T14:35:28;4.03;;;0.82;;
39930;SDS011;26635;-35.248;149.138;2024-03-02T14:37:59;2.60;;;0.80;;
39930;SDS011;26635;-35.248;149.138;2024-03-02T14:40:29;2.58;;;1.08;;
39930;SDS011;26635;-35.248;149.138;2024-03-02T14:43:01;3.42;;;0.70;;